Terminal Aerodrome Forecast
Issued by NWS

Home | Current Version | Previous Version | Graphics & Text | Print | Product List | Glossary On
Versions: 1 2 3 4 5 6 7 8 9 10 11 12 13 14
973
FTUS43 KMPX 181256 AAA
TAFRNH
TAF AMD
KRNH 181256Z 1813/1912 34009KT P6SM OVC007
     FM181500 33013G19KT P6SM SCT070
     FM181800 32015G22KT P6SM SCT250
     FM190200 31010G17KT P6SM SKC
     FM190900 29007KT P6SM SKC=

USA.gov is the U.S. government's official web portal to all federal, state and local government web resources and services.